Atherton, California
Current Conditions -  °F | °C
As of 6:55 AM on Saturday 25 Oct 2014 (Local Time) from KSQL Reporting Station
Haze Haze  
Wind Chill: 63°   Ceiling: 3900
Heat Index: 63°   Visibility: 6mi
Dew Point: 57°   Wind: 3mph
Humidity: 82%   Direction: 200°SSW
Pressure: 29.98"   Gusts: NA
Location:  37.46°N, 122.19°W
Report Text: KSQL 251355Z AUTO 20003KT 6SM HZ FEW019 SCT024 OVC039 17/14 A2998 RMK AO2 P0001
Loading
Personal Weather Stations






























Interactive Weather Map
Tropical Storm Tracking
New forecast layout! Learn more

10-Day Weather Forecast

Advertisements
Track Severe Weather on mobile